sensor_id;sensor_type;location;lat;lon;timestamp;P1;durP1;ratioP1;P2;durP2;ratioP2
76826;SDS011;65788;52.284;20.890;2023-09-08T00:00:45;6.60;;;5.00;;
76826;SDS011;65788;52.284;20.890;2023-09-08T00:03:29;7.50;;;5.20;;
76826;SDS011;65788;52.284;20.890;2023-09-08T00:05:56;7.10;;;5.00;;
76826;SDS011;65788;52.284;20.890;2023-09-08T00:08:23;7.10;;;5.40;;
76826;SDS011;65788;52.284;20.890;2023-09-08T00:10:50;7.10;;;5.00;;
76826;SDS011;65788;52.284;20.890;2023-09-08T00:13:17;8.30;;;5.10;;
76826;SDS011;65788;52.284;20.890;2023-09-08T00:15:44;8.50;;;5.00;;
76826;SDS011;65788;52.284;20.890;2023-09-08T00:18:10;8.60;;;5.10;;
76826;SDS011;65788;52.284;20.890;2023-09-08T00:20:38;10.50;;;5.60;;
76826;SDS011;65788;52.284;20.890;2023-09-08T00:23:05;7.90;;;4.80;;
76826;SDS011;65788;52.284;20.890;2023-09-08T00:25:31;8.40;;;5.20;;
76826;SDS011;65788;52.284;20.890;2023-09-08T00:27:58;9.40;;;5.20;;
76826;SDS011;65788;52.284;20.890;2023-09-08T00:30:25;7.00;;;5.10;;
76826;SDS011;65788;52.284;20.890;2023-09-08T00:32:52;6.70;;;5.10;;
76826;SDS011;65788;52.284;20.890;2023-09-08T00:35:18;7.30;;;4.80;;
76826;SDS011;65788;52.284;20.890;2023-09-08T00:37:45;9.50;;;5.40;;
76826;SDS011;65788;52.284;20.890;2023-09-08T00:40:12;8.30;;;5.00;;
76826;SDS011;65788;52.284;20.890;2023-09-08T00:42:38;6.30;;;4.80;;
76826;SDS011;65788;52.284;20.890;2023-09-08T00:45:05;7.40;;;4.50;;
76826;SDS011;65788;52.284;20.890;2023-09-08T00:47:34;8.00;;;4.50;;
76826;SDS011;65788;52.284;20.890;2023-09-08T00:50:02;6.80;;;5.40;;
76826;SDS011;65788;52.284;20.890;2023-09-08T00:52:30;8.80;;;5.20;;
76826;SDS011;65788;52.284;20.890;2023-09-08T00:54:59;8.10;;;5.70;;
76826;SDS011;65788;52.284;20.890;2023-09-08T00:57:26;7.40;;;5.60;;
76826;SDS011;65788;52.284;20.890;2023-09-08T00:59:53;7.10;;;5.40;;
76826;SDS011;65788;52.284;20.890;2023-09-08T01:02:20;7.30;;;5.00;;
76826;SDS011;65788;52.284;20.890;2023-09-08T01:04:47;7.40;;;5.10;;
76826;SDS011;65788;52.284;20.890;2023-09-08T01:07:15;6.90;;;5.00;;
76826;SDS011;65788;52.284;20.890;2023-09-08T01:09:42;8.20;;;5.70;;
76826;SDS011;65788;52.284;20.890;2023-09-08T01:12:10;7.80;;;5.60;;
76826;SDS011;65788;52.284;20.890;2023-09-08T01:14:37;10.70;;;5.30;;
76826;SDS011;65788;52.284;20.890;2023-09-08T01:17:04;8.30;;;5.80;;
76826;SDS011;65788;52.284;20.890;2023-09-08T01:19:31;8.90;;;6.00;;
76826;SDS011;65788;52.284;20.890;2023-09-08T01:27:54;7.00;;;5.10;;
76826;SDS011;65788;52.284;20.890;2023-09-08T01:30:24;8.80;;;5.30;;
76826;SDS011;65788;52.284;20.890;2023-09-08T01:32:53;10.30;;;5.80;;
76826;SDS011;65788;52.284;20.890;2023-09-08T01:35:21;7.00;;;4.50;;
76826;SDS011;65788;52.284;20.890;2023-09-08T01:37:48;6.30;;;5.10;;
76826;SDS011;65788;52.284;20.890;2023-09-08T01:40:15;8.00;;;5.00;;
76826;SDS011;65788;52.284;20.890;2023-09-08T01:42:42;8.00;;;5.40;;
76826;SDS011;65788;52.284;20.890;2023-09-08T01:45:09;8.20;;;5.10;;
76826;SDS011;65788;52.284;20.890;2023-09-08T01:47:37;8.60;;;5.60;;
76826;SDS011;65788;52.284;20.890;2023-09-08T01:50:04;8.00;;;5.10;;
76826;SDS011;65788;52.284;20.890;2023-09-08T01:52:31;7.60;;;5.70;;
76826;SDS011;65788;52.284;20.890;2023-09-08T01:54:58;6.70;;;5.60;;
76826;SDS011;65788;52.284;20.890;2023-09-08T01:57:24;7.40;;;5.40;;
76826;SDS011;65788;52.284;20.890;2023-09-08T01:59:51;7.90;;;5.60;;
76826;SDS011;65788;52.284;20.890;2023-09-08T02:02:18;9.70;;;6.20;;
76826;SDS011;65788;52.284;20.890;2023-09-08T02:04:45;7.10;;;5.20;;
76826;SDS011;65788;52.284;20.890;2023-09-08T02:07:11;6.90;;;5.20;;
76826;SDS011;65788;52.284;20.890;2023-09-08T02:09:38;7.30;;;5.80;;
76826;SDS011;65788;52.284;20.890;2023-09-08T02:12:05;8.10;;;5.30;;
76826;SDS011;65788;52.284;20.890;2023-09-08T02:14:32;7.00;;;4.90;;
76826;SDS011;65788;52.284;20.890;2023-09-08T02:16:59;6.70;;;5.30;;
76826;SDS011;65788;52.284;20.890;2023-09-08T02:19:26;10.90;;;5.60;;
76826;SDS011;65788;52.284;20.890;2023-09-08T02:21:52;7.40;;;5.20;;
76826;SDS011;65788;52.284;20.890;2023-09-08T02:24:19;8.00;;;5.40;;
76826;SDS011;65788;52.284;20.890;2023-09-08T02:26:46;8.80;;;5.30;;
76826;SDS011;65788;52.284;20.890;2023-09-08T02:29:13;6.90;;;5.40;;
76826;SDS011;65788;52.284;20.890;2023-09-08T02:31:40;7.20;;;5.40;;
76826;SDS011;65788;52.284;20.890;2023-09-08T02:34:06;8.70;;;5.60;;
76826;SDS011;65788;52.284;20.890;2023-09-08T02:36:33;7.90;;;5.60;;
76826;SDS011;65788;52.284;20.890;2023-09-08T02:39:00;7.60;;;5.80;;
76826;SDS011;65788;52.284;20.890;2023-09-08T02:41:26;8.60;;;5.90;;
76826;SDS011;65788;52.284;20.890;2023-09-08T02:43:53;7.70;;;5.40;;
76826;SDS011;65788;52.284;20.890;2023-09-08T02:46:20;8.30;;;5.30;;
76826;SDS011;65788;52.284;20.890;2023-09-08T02:48:46;7.70;;;5.40;;
76826;SDS011;65788;52.284;20.890;2023-09-08T02:51:13;8.00;;;5.70;;
76826;SDS011;65788;52.284;20.890;2023-09-08T02:53:40;11.50;;;5.80;;
76826;SDS011;65788;52.284;20.890;2023-09-08T02:56:07;8.50;;;5.80;;
76826;SDS011;65788;52.284;20.890;2023-09-08T02:58:36;8.10;;;6.00;;
76826;SDS011;65788;52.284;20.890;2023-09-08T03:01:36;7.20;;;5.40;;
76826;SDS011;65788;52.284;20.890;2023-09-08T03:03:55;8.00;;;5.80;;
76826;SDS011;65788;52.284;20.890;2023-09-08T03:06:22;8.70;;;6.00;;
76826;SDS011;65788;52.284;20.890;2023-09-08T03:08:49;9.30;;;5.70;;
76826;SDS011;65788;52.284;20.890;2023-09-08T03:11:16;7.20;;;5.40;;
76826;SDS011;65788;52.284;20.890;2023-09-08T03:13:42;10.20;;;6.00;;
76826;SDS011;65788;52.284;20.890;2023-09-08T03:16:09;7.40;;;5.60;;
76826;SDS011;65788;52.284;20.890;2023-09-08T03:18:37;10.60;;;5.70;;
76826;SDS011;65788;52.284;20.890;2023-09-08T03:21:05;10.50;;;5.90;;
76826;SDS011;65788;52.284;20.890;2023-09-08T03:23:39;10.30;;;5.80;;
76826;SDS011;65788;52.284;20.890;2023-09-08T03:26:07;11.10;;;6.00;;
76826;SDS011;65788;52.284;20.890;2023-09-08T03:28:35;9.60;;;5.60;;
76826;SDS011;65788;52.284;20.890;2023-09-08T03:31:03;8.40;;;5.80;;
76826;SDS011;65788;52.284;20.890;2023-09-08T03:33:30;8.50;;;5.50;;
76826;SDS011;65788;52.284;20.890;2023-09-08T03:35:57;7.50;;;5.30;;
76826;SDS011;65788;52.284;20.890;2023-09-08T03:38:24;7.90;;;5.70;;
76826;SDS011;65788;52.284;20.890;2023-09-08T03:40:51;8.10;;;6.00;;
76826;SDS011;65788;52.284;20.890;2023-09-08T03:43:18;9.10;;;6.00;;
76826;SDS011;65788;52.284;20.890;2023-09-08T03:45:44;12.00;;;6.10;;
76826;SDS011;65788;52.284;20.890;2023-09-08T03:48:11;6.70;;;5.50;;
76826;SDS011;65788;52.284;20.890;2023-09-08T03:50:38;8.40;;;5.10;;
76826;SDS011;65788;52.284;20.890;2023-09-08T03:53:05;10.30;;;6.90;;
76826;SDS011;65788;52.284;20.890;2023-09-08T03:55:31;8.00;;;5.70;;
76826;SDS011;65788;52.284;20.890;2023-09-08T03:57:58;10.10;;;6.00;;
76826;SDS011;65788;52.284;20.890;2023-09-08T04:00:25;7.40;;;5.80;;
76826;SDS011;65788;52.284;20.890;2023-09-08T04:02:52;8.10;;;5.60;;
76826;SDS011;65788;52.284;20.890;2023-09-08T04:05:18;9.10;;;6.00;;
76826;SDS011;65788;52.284;20.890;2023-09-08T04:07:45;7.20;;;5.70;;
76826;SDS011;65788;52.284;20.890;2023-09-08T04:10:13;9.90;;;6.50;;
76826;SDS011;65788;52.284;20.890;2023-09-08T04:12:41;9.20;;;6.50;;
76826;SDS011;65788;52.284;20.890;2023-09-08T04:15:08;9.50;;;5.60;;
76826;SDS011;65788;52.284;20.890;2023-09-08T04:17:36;10.80;;;6.10;;
76826;SDS011;65788;52.284;20.890;2023-09-08T04:20:04;8.70;;;6.40;;
76826;SDS011;65788;52.284;20.890;2023-09-08T04:22:32;8.80;;;5.90;;
76826;SDS011;65788;52.284;20.890;2023-09-08T04:24:59;8.10;;;5.90;;
76826;SDS011;65788;52.284;20.890;2023-09-08T04:27:27;11.60;;;6.40;;
76826;SDS011;65788;52.284;20.890;2023-09-08T04:29:53;7.80;;;6.30;;
76826;SDS011;65788;52.284;20.890;2023-09-08T04:32:20;9.40;;;6.00;;
76826;SDS011;65788;52.284;20.890;2023-09-08T04:34:47;9.00;;;5.90;;
76826;SDS011;65788;52.284;20.890;2023-09-08T04:37:16;8.90;;;5.90;;
76826;SDS011;65788;52.284;20.890;2023-09-08T04:39:42;8.30;;;5.70;;
76826;SDS011;65788;52.284;20.890;2023-09-08T04:42:10;11.10;;;6.40;;
76826;SDS011;65788;52.284;20.890;2023-09-08T04:44:37;11.10;;;6.70;;
76826;SDS011;65788;52.284;20.890;2023-09-08T04:47:04;9.00;;;6.10;;
76826;SDS011;65788;52.284;20.890;2023-09-08T04:51:58;8.60;;;5.80;;
76826;SDS011;65788;52.284;20.890;2023-09-08T04:54:25;11.40;;;6.40;;
76826;SDS011;65788;52.284;20.890;2023-09-08T04:56:53;7.40;;;5.50;;
76826;SDS011;65788;52.284;20.890;2023-09-08T04:59:21;10.50;;;5.60;;
76826;SDS011;65788;52.284;20.890;2023-09-08T05:01:49;12.20;;;6.50;;
76826;SDS011;65788;52.284;20.890;2023-09-08T05:04:17;10.00;;;6.30;;
76826;SDS011;65788;52.284;20.890;2023-09-08T05:06:44;9.30;;;6.00;;
76826;SDS011;65788;52.284;20.890;2023-09-08T05:09:12;7.50;;;5.70;;
76826;SDS011;65788;52.284;20.890;2023-09-08T05:11:39;12.70;;;6.30;;
76826;SDS011;65788;52.284;20.890;2023-09-08T05:14:06;11.50;;;6.40;;
76826;SDS011;65788;52.284;20.890;2023-09-08T05:16:33;11.80;;;6.20;;
76826;SDS011;65788;52.284;20.890;2023-09-08T05:19:05;10.10;;;6.10;;
76826;SDS011;65788;52.284;20.890;2023-09-08T05:21:33;11.00;;;6.40;;
76826;SDS011;65788;52.284;20.890;2023-09-08T05:24:00;9.80;;;6.20;;
76826;SDS011;65788;52.284;20.890;2023-09-08T05:26:27;12.60;;;6.50;;
76826;SDS011;65788;52.284;20.890;2023-09-08T05:28:53;8.40;;;6.30;;
76826;SDS011;65788;52.284;20.890;2023-09-08T05:31:20;8.20;;;5.60;;
76826;SDS011;65788;52.284;20.890;2023-09-08T05:33:47;12.20;;;6.20;;
76826;SDS011;65788;52.284;20.890;2023-09-08T05:36:14;9.60;;;5.80;;
76826;SDS011;65788;52.284;20.890;2023-09-08T05:38:41;13.50;;;7.00;;
76826;SDS011;65788;52.284;20.890;2023-09-08T05:41:07;14.20;;;7.10;;
76826;SDS011;65788;52.284;20.890;2023-09-08T05:43:34;13.40;;;6.20;;
76826;SDS011;65788;52.284;20.890;2023-09-08T05:46:01;13.10;;;7.00;;
76826;SDS011;65788;52.284;20.890;2023-09-08T05:48:28;11.80;;;6.70;;
76826;SDS011;65788;52.284;20.890;2023-09-08T05:50:55;11.70;;;6.50;;
76826;SDS011;65788;52.284;20.890;2023-09-08T05:53:22;10.70;;;6.70;;
76826;SDS011;65788;52.284;20.890;2023-09-08T05:55:49;10.00;;;6.40;;
76826;SDS011;65788;52.284;20.890;2023-09-08T05:58:15;12.30;;;6.70;;
76826;SDS011;65788;52.284;20.890;2023-09-08T06:00:42;11.30;;;6.70;;
76826;SDS011;65788;52.284;20.890;2023-09-08T06:03:09;13.00;;;6.60;;
76826;SDS011;65788;52.284;20.890;2023-09-08T06:05:35;10.70;;;7.00;;
76826;SDS011;65788;52.284;20.890;2023-09-08T06:08:02;10.30;;;6.80;;
76826;SDS011;65788;52.284;20.890;2023-09-08T06:10:29;9.80;;;6.50;;
76826;SDS011;65788;52.284;20.890;2023-09-08T06:12:57;11.80;;;7.70;;
76826;SDS011;65788;52.284;20.890;2023-09-08T06:15:24;13.10;;;6.90;;
76826;SDS011;65788;52.284;20.890;2023-09-08T06:17:51;8.50;;;6.60;;
76826;SDS011;65788;52.284;20.890;2023-09-08T06:20:18;10.50;;;6.50;;
76826;SDS011;65788;52.284;20.890;2023-09-08T06:22:45;11.70;;;6.30;;
76826;SDS011;65788;52.284;20.890;2023-09-08T06:25:11;10.70;;;7.00;;
76826;SDS011;65788;52.284;20.890;2023-09-08T06:27:39;10.20;;;6.80;;
76826;SDS011;65788;52.284;20.890;2023-09-08T06:30:06;10.70;;;6.80;;
76826;SDS011;65788;52.284;20.890;2023-09-08T06:32:33;10.30;;;7.00;;
76826;SDS011;65788;52.284;20.890;2023-09-08T06:35:00;10.30;;;7.20;;
76826;SDS011;65788;52.284;20.890;2023-09-08T06:37:27;11.00;;;7.10;;
76826;SDS011;65788;52.284;20.890;2023-09-08T06:39:55;11.30;;;7.50;;
76826;SDS011;65788;52.284;20.890;2023-09-08T06:42:22;10.80;;;6.90;;
76826;SDS011;65788;52.284;20.890;2023-09-08T06:44:48;31.10;;;7.80;;
76826;SDS011;65788;52.284;20.890;2023-09-08T06:47:15;12.30;;;7.20;;
76826;SDS011;65788;52.284;20.890;2023-09-08T06:49:42;12.10;;;7.50;;
76826;SDS011;65788;52.284;20.890;2023-09-08T06:52:08;10.80;;;7.10;;
76826;SDS011;65788;52.284;20.890;2023-09-08T06:54:35;10.40;;;7.10;;
76826;SDS011;65788;52.284;20.890;2023-09-08T06:57:02;10.40;;;6.70;;
76826;SDS011;65788;52.284;20.890;2023-09-08T06:59:29;12.00;;;7.60;;
76826;SDS011;65788;52.284;20.890;2023-09-08T07:01:56;11.60;;;7.60;;
76826;SDS011;65788;52.284;20.890;2023-09-08T07:04:22;11.20;;;7.80;;
76826;SDS011;65788;52.284;20.890;2023-09-08T07:06:49;12.70;;;7.30;;
76826;SDS011;65788;52.284;20.890;2023-09-08T07:09:16;10.30;;;7.60;;
76826;SDS011;65788;52.284;20.890;2023-09-08T07:11:43;11.70;;;6.80;;
76826;SDS011;65788;52.284;20.890;2023-09-08T07:14:09;10.70;;;8.00;;
76826;SDS011;65788;52.284;20.890;2023-09-08T07:16:36;11.70;;;7.50;;
76826;SDS011;65788;52.284;20.890;2023-09-08T07:19:03;11.00;;;7.50;;
76826;SDS011;65788;52.284;20.890;2023-09-08T07:21:29;11.70;;;7.40;;
76826;SDS011;65788;52.284;20.890;2023-09-08T07:23:57;10.50;;;6.60;;
76826;SDS011;65788;52.284;20.890;2023-09-08T07:26:24;11.40;;;7.60;;
76826;SDS011;65788;52.284;20.890;2023-09-08T07:28:51;9.70;;;6.90;;
76826;SDS011;65788;52.284;20.890;2023-09-08T07:31:18;11.40;;;6.70;;
76826;SDS011;65788;52.284;20.890;2023-09-08T07:33:44;10.70;;;6.80;;
76826;SDS011;65788;52.284;20.890;2023-09-08T07:36:11;10.70;;;7.10;;
76826;SDS011;65788;52.284;20.890;2023-09-08T07:38:38;10.20;;;7.10;;
76826;SDS011;65788;52.284;20.890;2023-09-08T07:41:04;10.00;;;6.60;;
76826;SDS011;65788;52.284;20.890;2023-09-08T07:43:31;10.00;;;6.80;;
76826;SDS011;65788;52.284;20.890;2023-09-08T07:45:58;10.60;;;6.60;;
76826;SDS011;65788;52.284;20.890;2023-09-08T07:48:25;11.10;;;6.90;;
76826;SDS011;65788;52.284;20.890;2023-09-08T07:50:51;11.50;;;7.20;;
76826;SDS011;65788;52.284;20.890;2023-09-08T07:53:18;13.80;;;8.00;;
76826;SDS011;65788;52.284;20.890;2023-09-08T07:55:45;10.80;;;7.10;;
76826;SDS011;65788;52.284;20.890;2023-09-08T07:58:12;13.20;;;7.00;;
76826;SDS011;65788;52.284;20.890;2023-09-08T08:00:38;13.70;;;7.00;;
76826;SDS011;65788;52.284;20.890;2023-09-08T08:03:05;11.90;;;6.30;;
76826;SDS011;65788;52.284;20.890;2023-09-08T08:05:33;11.00;;;6.70;;
76826;SDS011;65788;52.284;20.890;2023-09-08T08:07:59;10.90;;;7.40;;
76826;SDS011;65788;52.284;20.890;2023-09-08T08:10:26;11.90;;;7.40;;
76826;SDS011;65788;52.284;20.890;2023-09-08T08:12:54;9.80;;;6.60;;
76826;SDS011;65788;52.284;20.890;2023-09-08T08:15:21;13.50;;;6.80;;
76826;SDS011;65788;52.284;20.890;2023-09-08T08:17:50;12.20;;;7.30;;
76826;SDS011;65788;52.284;20.890;2023-09-08T08:20:17;8.70;;;6.40;;
76826;SDS011;65788;52.284;20.890;2023-09-08T08:22:44;9.60;;;6.80;;
76826;SDS011;65788;52.284;20.890;2023-09-08T08:25:14;10.00;;;6.20;;
76826;SDS011;65788;52.284;20.890;2023-09-08T08:27:40;9.50;;;6.70;;
76826;SDS011;65788;52.284;20.890;2023-09-08T08:30:08;12.20;;;7.10;;
76826;SDS011;65788;52.284;20.890;2023-09-08T08:32:37;13.20;;;6.80;;
76826;SDS011;65788;52.284;20.890;2023-09-08T08:35:04;10.90;;;6.50;;
76826;SDS011;65788;52.284;20.890;2023-09-08T08:37:31;11.20;;;7.00;;
76826;SDS011;65788;52.284;20.890;2023-09-08T08:39:58;9.60;;;6.20;;
76826;SDS011;65788;52.284;20.890;2023-09-08T08:42:30;11.00;;;6.90;;
76826;SDS011;65788;52.284;20.890;2023-09-08T08:44:59;12.20;;;6.10;;
76826;SDS011;65788;52.284;20.890;2023-09-08T08:47:27;12.60;;;7.20;;
76826;SDS011;65788;52.284;20.890;2023-09-08T08:49:59;9.50;;;6.40;;
76826;SDS011;65788;52.284;20.890;2023-09-08T08:52:27;10.30;;;6.10;;
76826;SDS011;65788;52.284;20.890;2023-09-08T08:54:54;9.40;;;6.30;;
76826;SDS011;65788;52.284;20.890;2023-09-08T08:57:21;12.00;;;6.20;;
76826;SDS011;65788;52.284;20.890;2023-09-08T08:59:49;8.10;;;6.50;;
76826;SDS011;65788;52.284;20.890;2023-09-08T09:02:19;8.10;;;6.00;;
76826;SDS011;65788;52.284;20.890;2023-09-08T09:04:48;10.80;;;6.40;;
76826;SDS011;65788;52.284;20.890;2023-09-08T09:07:15;8.70;;;6.90;;
76826;SDS011;65788;52.284;20.890;2023-09-08T09:09:45;9.90;;;5.80;;
76826;SDS011;65788;52.284;20.890;2023-09-08T09:12:12;7.80;;;5.80;;
76826;SDS011;65788;52.284;20.890;2023-09-08T09:14:39;10.20;;;7.10;;
76826;SDS011;65788;52.284;20.890;2023-09-08T09:17:13;10.30;;;6.20;;
76826;SDS011;65788;52.284;20.890;2023-09-08T09:19:42;8.20;;;5.60;;
76826;SDS011;65788;52.284;20.890;2023-09-08T09:22:09;7.60;;;5.70;;
76826;SDS011;65788;52.284;20.890;2023-09-08T09:27:12;8.00;;;6.30;;
76826;SDS011;65788;52.284;20.890;2023-09-08T09:29:46;9.20;;;6.20;;
76826;SDS011;65788;52.284;20.890;2023-09-08T09:32:15;7.50;;;5.60;;
76826;SDS011;65788;52.284;20.890;2023-09-08T09:34:49;8.80;;;5.90;;
76826;SDS011;65788;52.284;20.890;2023-09-08T09:37:19;7.70;;;5.20;;
76826;SDS011;65788;52.284;20.890;2023-09-08T09:39:50;8.90;;;6.00;;
76826;SDS011;65788;52.284;20.890;2023-09-08T09:42:18;9.30;;;6.10;;
76826;SDS011;65788;52.284;20.890;2023-09-08T09:44:47;11.80;;;6.00;;
76826;SDS011;65788;52.284;20.890;2023-09-08T09:49:47;8.80;;;6.20;;
76826;SDS011;65788;52.284;20.890;2023-09-08T09:52:20;9.00;;;6.50;;
76826;SDS011;65788;52.284;20.890;2023-09-08T09:54:49;8.50;;;5.80;;
76826;SDS011;65788;52.284;20.890;2023-09-08T09:57:21;8.10;;;6.10;;
76826;SDS011;65788;52.284;20.890;2023-09-08T09:59:49;6.90;;;5.50;;
76826;SDS011;65788;52.284;20.890;2023-09-08T10:02:18;9.20;;;5.70;;
76826;SDS011;65788;52.284;20.890;2023-09-08T10:04:48;9.30;;;5.60;;
76826;SDS011;65788;52.284;20.890;2023-09-08T10:07:16;7.60;;;5.70;;
76826;SDS011;65788;52.284;20.890;2023-09-08T10:12:12;9.40;;;5.70;;
76826;SDS011;65788;52.284;20.890;2023-09-08T10:14:42;7.70;;;5.20;;
76826;SDS011;65788;52.284;20.890;2023-09-08T10:17:12;6.50;;;5.30;;
76826;SDS011;65788;52.284;20.890;2023-09-08T10:19:44;7.70;;;5.20;;
76826;SDS011;65788;52.284;20.890;2023-09-08T10:22:15;8.10;;;5.90;;
76826;SDS011;65788;52.284;20.890;2023-09-08T10:24:49;9.10;;;5.60;;
76826;SDS011;65788;52.284;20.890;2023-09-08T10:27:20;9.00;;;5.40;;
76826;SDS011;65788;52.284;20.890;2023-09-08T10:29:49;7.60;;;5.80;;
76826;SDS011;65788;52.284;20.890;2023-09-08T10:32:16;5.60;;;4.70;;
76826;SDS011;65788;52.284;20.890;2023-09-08T10:34:45;6.20;;;5.20;;
76826;SDS011;65788;52.284;20.890;2023-09-08T10:37:22;6.90;;;4.90;;
76826;SDS011;65788;52.284;20.890;2023-09-08T10:39:56;7.60;;;5.10;;
76826;SDS011;65788;52.284;20.890;2023-09-08T10:42:24;7.20;;;5.60;;
76826;SDS011;65788;52.284;20.890;2023-09-08T10:44:56;6.20;;;5.10;;
76826;SDS011;65788;52.284;20.890;2023-09-08T10:47:32;7.20;;;5.40;;
76826;SDS011;65788;52.284;20.890;2023-09-08T10:50:00;5.60;;;4.70;;
76826;SDS011;65788;52.284;20.890;2023-09-08T10:52:29;6.80;;;5.40;;
76826;SDS011;65788;52.284;20.890;2023-09-08T10:54:56;7.30;;;5.70;;
76826;SDS011;65788;52.284;20.890;2023-09-08T10:57:24;7.00;;;4.70;;
76826;SDS011;65788;52.284;20.890;2023-09-08T10:59:55;7.90;;;5.40;;
76826;SDS011;65788;52.284;20.890;2023-09-08T11:02:33;5.90;;;4.90;;
76826;SDS011;65788;52.284;20.890;2023-09-08T11:05:08;6.20;;;4.70;;
76826;SDS011;65788;52.284;20.890;2023-09-08T11:07:37;6.00;;;5.00;;
76826;SDS011;65788;52.284;20.890;2023-09-08T11:10:04;8.10;;;5.40;;
76826;SDS011;65788;52.284;20.890;2023-09-08T11:12:32;6.80;;;6.00;;
76826;SDS011;65788;52.284;20.890;2023-09-08T11:15:01;7.70;;;4.80;;
76826;SDS011;65788;52.284;20.890;2023-09-08T11:17:31;6.50;;;5.20;;
76826;SDS011;65788;52.284;20.890;2023-09-08T11:20:01;6.80;;;5.60;;
76826;SDS011;65788;52.284;20.890;2023-09-08T11:22:34;6.60;;;5.70;;
76826;SDS011;65788;52.284;20.890;2023-09-08T11:27:32;7.00;;;5.40;;
76826;SDS011;65788;52.284;20.890;2023-09-08T11:29:59;6.50;;;5.60;;
76826;SDS011;65788;52.284;20.890;2023-09-08T11:32:33;5.60;;;4.70;;
76826;SDS011;65788;52.284;20.890;2023-09-08T11:35:08;7.20;;;5.40;;
76826;SDS011;65788;52.284;20.890;2023-09-08T11:37:37;7.20;;;5.40;;
76826;SDS011;65788;52.284;20.890;2023-09-08T11:40:07;6.00;;;4.60;;
76826;SDS011;65788;52.284;20.890;2023-09-08T11:42:42;7.70;;;5.60;;
76826;SDS011;65788;52.284;20.890;2023-09-08T11:45:11;5.70;;;5.00;;
76826;SDS011;65788;52.284;20.890;2023-09-08T11:47:40;6.60;;;4.80;;
76826;SDS011;65788;52.284;20.890;2023-09-08T11:52:45;6.10;;;5.30;;
76826;SDS011;65788;52.284;20.890;2023-09-08T11:55:14;6.80;;;4.90;;
76826;SDS011;65788;52.284;20.890;2023-09-08T11:57:41;8.40;;;5.20;;
76826;SDS011;65788;52.284;20.890;2023-09-08T12:00:12;6.40;;;5.10;;
76826;SDS011;65788;52.284;20.890;2023-09-08T12:02:44;7.60;;;4.70;;
76826;SDS011;65788;52.284;20.890;2023-09-08T12:05:32;6.60;;;5.30;;
76826;SDS011;65788;52.284;20.890;2023-09-08T12:07:58;5.40;;;4.70;;
76826;SDS011;65788;52.284;20.890;2023-09-08T12:10:25;7.20;;;5.50;;
76826;SDS011;65788;52.284;20.890;2023-09-08T12:12:53;6.30;;;4.90;;
76826;SDS011;65788;52.284;20.890;2023-09-08T12:15:34;5.40;;;4.60;;
76826;SDS011;65788;52.284;20.890;2023-09-08T12:18:04;7.60;;;4.80;;
76826;SDS011;65788;52.284;20.890;2023-09-08T12:20:34;6.60;;;4.70;;
76826;SDS011;65788;52.284;20.890;2023-09-08T12:23:04;7.20;;;4.80;;
76826;SDS011;65788;52.284;20.890;2023-09-08T12:25:32;6.20;;;4.90;;
76826;SDS011;65788;52.284;20.890;2023-09-08T12:28:00;5.20;;;4.70;;
76826;SDS011;65788;52.284;20.890;2023-09-08T12:30:27;6.70;;;5.20;;
76826;SDS011;65788;52.284;20.890;2023-09-08T12:33:00;6.90;;;4.70;;
76826;SDS011;65788;52.284;20.890;2023-09-08T12:35:28;6.30;;;4.70;;
76826;SDS011;65788;52.284;20.890;2023-09-08T12:37:59;5.10;;;4.40;;
76826;SDS011;65788;52.284;20.890;2023-09-08T12:40:27;7.30;;;4.70;;
76826;SDS011;65788;52.284;20.890;2023-09-08T12:42:55;6.70;;;4.80;;
76826;SDS011;65788;52.284;20.890;2023-09-08T12:45:25;5.90;;;4.90;;
76826;SDS011;65788;52.284;20.890;2023-09-08T12:47:53;6.90;;;4.60;;
76826;SDS011;65788;52.284;20.890;2023-09-08T12:50:25;5.20;;;4.40;;
76826;SDS011;65788;52.284;20.890;2023-09-08T12:52:52;7.00;;;4.90;;
76826;SDS011;65788;52.284;20.890;2023-09-08T12:55:20;6.90;;;5.10;;
76826;SDS011;65788;52.284;20.890;2023-09-08T12:57:47;6.80;;;4.40;;
76826;SDS011;65788;52.284;20.890;2023-09-08T13:00:14;6.70;;;4.40;;
76826;SDS011;65788;52.284;20.890;2023-09-08T13:02:43;7.60;;;4.80;;
76826;SDS011;65788;52.284;20.890;2023-09-08T13:05:11;5.30;;;4.70;;
76826;SDS011;65788;52.284;20.890;2023-09-08T13:07:37;7.00;;;4.70;;
76826;SDS011;65788;52.284;20.890;2023-09-08T13:10:04;5.80;;;4.40;;
76826;SDS011;65788;52.284;20.890;2023-09-08T13:12:32;6.40;;;4.70;;
76826;SDS011;65788;52.284;20.890;2023-09-08T13:14:59;7.00;;;4.90;;
76826;SDS011;65788;52.284;20.890;2023-09-08T13:17:26;6.70;;;5.20;;
76826;SDS011;65788;52.284;20.890;2023-09-08T13:19:53;5.90;;;5.30;;
76826;SDS011;65788;52.284;20.890;2023-09-08T13:22:21;8.90;;;5.10;;
76826;SDS011;65788;52.284;20.890;2023-09-08T13:24:48;5.80;;;4.90;;
76826;SDS011;65788;52.284;20.890;2023-09-08T13:27:15;6.80;;;5.30;;
76826;SDS011;65788;52.284;20.890;2023-09-08T13:29:44;6.40;;;5.20;;
76826;SDS011;65788;52.284;20.890;2023-09-08T13:32:11;6.70;;;5.20;;
76826;SDS011;65788;52.284;20.890;2023-09-08T13:34:38;8.50;;;5.50;;
76826;SDS011;65788;52.284;20.890;2023-09-08T13:37:05;6.10;;;4.90;;
76826;SDS011;65788;52.284;20.890;2023-09-08T13:39:32;7.00;;;5.30;;
76826;SDS011;65788;52.284;20.890;2023-09-08T13:41:59;7.20;;;5.20;;
76826;SDS011;65788;52.284;20.890;2023-09-08T13:44:28;6.10;;;4.90;;
76826;SDS011;65788;52.284;20.890;2023-09-08T13:46:54;9.00;;;5.40;;
76826;SDS011;65788;52.284;20.890;2023-09-08T13:49:22;8.50;;;4.80;;
76826;SDS011;65788;52.284;20.890;2023-09-08T13:51:49;8.80;;;5.50;;
76826;SDS011;65788;52.284;20.890;2023-09-08T13:54:18;9.50;;;6.20;;
76826;SDS011;65788;52.284;20.890;2023-09-08T13:56:45;12.20;;;6.30;;
76826;SDS011;65788;52.284;20.890;2023-09-08T13:59:12;8.90;;;5.90;;
76826;SDS011;65788;52.284;20.890;2023-09-08T14:01:39;9.60;;;5.40;;
76826;SDS011;65788;52.284;20.890;2023-09-08T14:04:06;7.00;;;5.10;;
76826;SDS011;65788;52.284;20.890;2023-09-08T14:06:33;8.90;;;5.90;;
76826;SDS011;65788;52.284;20.890;2023-09-08T14:09:00;9.70;;;5.70;;
76826;SDS011;65788;52.284;20.890;2023-09-08T14:11:27;7.80;;;5.00;;
76826;SDS011;65788;52.284;20.890;2023-09-08T14:13:54;9.70;;;5.00;;
76826;SDS011;65788;52.284;20.890;2023-09-08T14:16:20;9.80;;;6.10;;
76826;SDS011;65788;52.284;20.890;2023-09-08T14:18:49;7.70;;;5.70;;
76826;SDS011;65788;52.284;20.890;2023-09-08T14:21:16;7.90;;;5.60;;
76826;SDS011;65788;52.284;20.890;2023-09-08T14:23:42;6.80;;;5.20;;
76826;SDS011;65788;52.284;20.890;2023-09-08T14:26:09;6.60;;;5.30;;
76826;SDS011;65788;52.284;20.890;2023-09-08T14:28:36;7.10;;;5.50;;
76826;SDS011;65788;52.284;20.890;2023-09-08T14:31:03;6.60;;;5.30;;
76826;SDS011;65788;52.284;20.890;2023-09-08T14:33:30;8.00;;;5.10;;
76826;SDS011;65788;52.284;20.890;2023-09-08T14:35:57;7.00;;;5.10;;
76826;SDS011;65788;52.284;20.890;2023-09-08T14:38:24;6.00;;;4.90;;
76826;SDS011;65788;52.284;20.890;2023-09-08T14:41:00;6.80;;;4.80;;
76826;SDS011;65788;52.284;20.890;2023-09-08T14:43:28;7.10;;;5.30;;
76826;SDS011;65788;52.284;20.890;2023-09-08T14:45:56;7.40;;;5.70;;
76826;SDS011;65788;52.284;20.890;2023-09-08T14:48:25;5.50;;;4.30;;
76826;SDS011;65788;52.284;20.890;2023-09-08T14:50:52;6.40;;;5.10;;
76826;SDS011;65788;52.284;20.890;2023-09-08T14:53:20;6.40;;;5.50;;
76826;SDS011;65788;52.284;20.890;2023-09-08T14:55:47;7.30;;;5.40;;